San Saba, Texas
Current Conditions -  °F | °C
As of 7:50 AM on Thursday 30 Oct 2014 (Local Time) from KAQO Reporting Station
Overcast Overcast  
Wind Chill: 57°   Ceiling: 1200
Heat Index: 57°   Visibility: 9mi
Dew Point: 55°   Wind: 0mph
Humidity: 94%   Direction: NA
Pressure: 30.17"   Gusts: NA
Location:  31.2°N, 98.72°W
Report Text: KAQO 301250Z AUTO 00000KT 9SM OVC012 14/13 A3017 RMK AO2
Loading
Personal Weather Stations






























Interactive Weather Map New forecast layout! Learn more

10-Day Weather Forecast

Advertisements
Track Severe Weather on mobile